Time;durP1;ratioP1;P1;durP2;ratioP2;P2;SDS_P1;SDS_P2;PMS_P1;PMS_P2;Temp;Humidity;BMP_temperature;BMP_pressure;BME280_temperature;BME280_humidity;BME280_pressure;Samples;Min_cycle;Max_cycle;Signal;HPM_P1;HPM_P2
2021/09/15 00:01:55;;;;;;;70.30;55.07;;;;;;;;;;5077746;28;20317;-71
2021/09/15 00:04:22;;;;;;;70.90;56.17;;;;;;;;;;5075614;28;20259;-71
2021/09/15 00:06:48;;;;;;;72.30;56.93;;;;;;;;;;5074839;28;20213;-71
2021/09/15 00:09:14;;;;;;;65.53;52.43;;;;;;;;;;5074628;28;20221;-71
2021/09/15 00:11:42;;;;;;;70.33;55.17;;;;;;;;;;5076161;28;20217;-71
2021/09/15 00:14:08;;;;;;;88.50;61.00;;;;;;;;;;5074692;28;20672;-71
2021/09/15 00:16:35;;;;;;;71.47;55.23;;;;;;;;;;5073508;28;20226;-72
2021/09/15 00:19:01;;;;;;;72.73;55.33;;;;;;;;;;5072488;28;20216;-72
2021/09/15 00:21:29;;;;;;;94.83;62.47;;;;;;;;;;5074077;28;20615;-72
2021/09/15 00:23:55;;;;;;;56.47;48.67;;;;;;;;;;5076297;28;20210;-71
2021/09/15 00:26:22;;;;;;;77.73;55.97;;;;;;;;;;5073681;28;20239;-71
2021/09/15 00:28:49;;;;;;;79.27;55.20;;;;;;;;;;5074755;28;20733;-72
2021/09/15 00:31:16;;;;;;;72.63;53.53;;;;;;;;;;5074799;28;20748;-72
2021/09/15 00:33:42;;;;;;;89.20;61.33;;;;;;;;;;5076216;28;20310;-72
2021/09/15 00:36:09;;;;;;;77.27;57.13;;;;;;;;;;5075316;28;20216;-72
2021/09/15 00:38:35;;;;;;;74.23;56.73;;;;;;;;;;5076251;28;20213;-72
2021/09/15 00:41:01;;;;;;;85.87;58.83;;;;;;;;;;5074550;28;20214;-72
2021/09/15 00:43:28;;;;;;;67.60;53.83;;;;;;;;;;5073231;28;20206;-72
2021/09/15 00:45:57;;;;;;;69.17;54.47;;;;;;;;;;5074369;28;20224;-72
2021/09/15 00:48:23;;;;;;;77.20;54.87;;;;;;;;;;5073869;28;20834;-72
2021/09/15 00:50:50;;;;;;;84.63;59.83;;;;;;;;;;5073747;28;20221;-71
2021/09/15 00:53:16;;;;;;;80.30;58.60;;;;;;;;;;5075179;28;20238;-71
2021/09/15 00:55:42;;;;;;;70.40;57.27;;;;;;;;;;5074650;28;20217;-71
2021/09/15 00:58:09;;;;;;;81.37;59.80;;;;;;;;;;5074312;28;20668;-71
2021/09/15 01:00:36;;;;;;;61.30;50.50;;;;;;;;;;5075191;28;20216;-71
2021/09/15 01:03:03;;;;;;;58.10;51.47;;;;;;;;;;5075100;28;20287;-71
2021/09/15 01:05:30;;;;;;;69.70;54.10;;;;;;;;;;5074761;28;20310;-71
2021/09/15 01:07:57;;;;;;;61.73;51.40;;;;;;;;;;5074780;28;21200;-71
2021/09/15 01:10:24;;;;;;;72.80;58.47;;;;;;;;;;5075242;28;20220;-71
2021/09/15 01:12:52;;;;;;;58.67;51.00;;;;;;;;;;5072947;28;20211;-71
2021/09/15 01:15:19;;;;;;;62.33;53.53;;;;;;;;;;5075082;28;20284;-71
2021/09/15 01:17:45;;;;;;;54.23;48.53;;;;;;;;;;5074892;28;20233;-71
2021/09/15 01:20:13;;;;;;;51.97;46.20;;;;;;;;;;5078317;28;20213;-71
2021/09/15 01:22:41;;;;;;;61.83;53.60;;;;;;;;;;5078532;28;20249;-71
2021/09/15 01:25:08;;;;;;;56.17;50.23;;;;;;;;;;5078097;28;20714;-71
2021/09/15 01:27:34;;;;;;;53.87;48.37;;;;;;;;;;5077286;28;20579;-71
2021/09/15 01:30:01;;;;;;;62.53;53.00;;;;;;;;;;5077927;28;20225;-71
2021/09/15 01:32:27;;;;;;;58.30;51.87;;;;;;;;;;5078725;28;20228;-71
2021/09/15 01:34:54;;;;;;;65.60;57.67;;;;;;;;;;5078245;28;20663;-71
2021/09/15 01:37:22;;;;;;;67.63;58.23;;;;;;;;;;5077501;28;20226;-71
2021/09/15 01:39:49;;;;;;;64.90;57.53;;;;;;;;;;5078943;28;20209;-71
2021/09/15 01:42:16;;;;;;;72.53;59.83;;;;;;;;;;5079048;28;20218;-71
2021/09/15 01:44:44;;;;;;;66.07;58.80;;;;;;;;;;5079556;28;20254;-71
2021/09/15 01:47:12;;;;;;;71.93;61.63;;;;;;;;;;5079445;28;20233;-71
2021/09/15 01:49:40;;;;;;;72.80;61.03;;;;;;;;;;5077048;28;20210;-71
2021/09/15 01:52:08;;;;;;;76.10;63.97;;;;;;;;;;5078588;28;20222;-71
2021/09/15 01:54:35;;;;;;;101.87;72.87;;;;;;;;;;5078153;28;20285;-71
2021/09/15 01:57:04;;;;;;;88.43;67.77;;;;;;;;;;5077799;28;20800;-71
2021/09/15 01:59:30;;;;;;;75.23;62.60;;;;;;;;;;5077436;28;20216;-71
2021/09/15 02:01:57;;;;;;;99.33;74.57;;;;;;;;;;5077847;28;20640;-71
2021/09/15 02:04:23;;;;;;;90.07;71.20;;;;;;;;;;5077161;28;20215;-71
2021/09/15 02:06:50;;;;;;;103.33;74.27;;;;;;;;;;5075988;28;20220;-71
2021/09/15 02:09:16;;;;;;;75.90;63.33;;;;;;;;;;5077663;28;20607;-71
2021/09/15 02:11:42;;;;;;;98.00;77.50;;;;;;;;;;5079567;28;20279;-71
2021/09/15 02:14:10;;;;;;;89.20;71.43;;;;;;;;;;5078336;28;20255;-71
2021/09/15 02:16:36;;;;;;;89.27;73.40;;;;;;;;;;5078756;28;20283;-71
2021/09/15 02:19:03;;;;;;;101.73;79.47;;;;;;;;;;5077594;28;20604;-71
2021/09/15 02:21:30;;;;;;;100.07;77.17;;;;;;;;;;5077699;28;20211;-71
2021/09/15 02:23:57;;;;;;;102.13;80.87;;;;;;;;;;5077472;28;20298;-71
2021/09/15 02:26:24;;;;;;;97.00;77.20;;;;;;;;;;5078160;28;20217;-71
2021/09/15 02:28:50;;;;;;;102.60;82.07;;;;;;;;;;5076947;28;20220;-71
2021/09/15 02:31:18;;;;;;;113.93;86.90;;;;;;;;;;5077012;28;20221;-71
2021/09/15 02:33:45;;;;;;;121.73;87.93;;;;;;;;;;5077925;28;20237;-71
2021/09/15 02:36:11;;;;;;;96.30;78.60;;;;;;;;;;5077959;28;20270;-71
2021/09/15 02:38:37;;;;;;;116.20;87.73;;;;;;;;;;5078550;28;20221;-71
2021/09/15 02:41:04;;;;;;;112.47;86.90;;;;;;;;;;5078541;28;20214;-71
2021/09/15 02:43:30;;;;;;;122.37;88.10;;;;;;;;;;5075909;28;20220;-71
2021/09/15 02:45:56;;;;;;;123.37;94.00;;;;;;;;;;5076834;28;20700;-72
2021/09/15 02:48:24;;;;;;;112.00;88.77;;;;;;;;;;5076611;28;20280;-72
2021/09/15 02:50:50;;;;;;;135.10;94.73;;;;;;;;;;5076444;28;21119;-72
2021/09/15 02:53:17;;;;;;;118.17;89.10;;;;;;;;;;5075120;28;20507;-72
2021/09/15 02:55:44;;;;;;;134.63;94.97;;;;;;;;;;5076609;28;20232;-72
2021/09/15 02:58:10;;;;;;;151.53;100.17;;;;;;;;;;5077512;28;20270;-72
2021/09/15 03:00:37;;;;;;;138.93;97.53;;;;;;;;;;5077423;28;20217;-72
2021/09/15 03:03:04;;;;;;;160.33;101.87;;;;;;;;;;5074829;28;20241;-72
2021/09/15 03:05:32;;;;;;;158.73;104.23;;;;;;;;;;5078726;28;20263;-72
2021/09/15 03:07:59;;;;;;;176.77;105.50;;;;;;;;;;5075131;28;20299;-72
2021/09/15 03:10:26;;;;;;;185.03;110.33;;;;;;;;;;5075829;28;20243;-72
2021/09/15 03:12:52;;;;;;;155.83;100.13;;;;;;;;;;5076379;28;20225;-72
2021/09/15 03:15:18;;;;;;;193.13;108.53;;;;;;;;;;5074567;28;20930;-72
2021/09/15 03:17:45;;;;;;;206.77;113.10;;;;;;;;;;5075037;28;20225;-72
2021/09/15 03:20:12;;;;;;;152.43;103.03;;;;;;;;;;5074981;28;20725;-72
2021/09/15 03:22:40;;;;;;;183.27;106.77;;;;;;;;;;5075162;28;20218;-72
2021/09/15 03:25:08;;;;;;;178.63;105.13;;;;;;;;;;5075129;28;20254;-72
2021/09/15 03:27:34;;;;;;;207.57;115.20;;;;;;;;;;5077043;28;20262;-72
2021/09/15 03:30:01;;;;;;;168.03;103.27;;;;;;;;;;5075756;28;20228;-72
2021/09/15 03:32:27;;;;;;;179.37;108.13;;;;;;;;;;5075297;28;20236;-72
2021/09/15 03:34:53;;;;;;;164.43;101.73;;;;;;;;;;5075216;28;20890;-72
2021/09/15 03:37:20;;;;;;;193.97;111.73;;;;;;;;;;5075808;28;20240;-72
2021/09/15 03:39:47;;;;;;;205.40;111.53;;;;;;;;;;5075092;28;20696;-72
2021/09/15 03:42:14;;;;;;;190.00;109.37;;;;;;;;;;5074358;28;20217;-72
2021/09/15 03:44:40;;;;;;;313.90;133.07;;;;;;;;;;5075590;28;20262;-71
2021/09/15 03:47:07;;;;;;;372.43;132.13;;;;;;;;;;5075891;28;20711;-71
2021/09/15 03:49:34;;;;;;;395.30;134.40;;;;;;;;;;5074711;28;20221;-71
2021/09/15 03:52:00;;;;;;;490.47;140.43;;;;;;;;;;5075899;28;20283;-71
2021/09/15 03:54:27;;;;;;;911.43;217.30;;;;;;;;;;5076533;28;20621;-71
2021/09/15 03:56:54;;;;;;;673.37;172.20;;;;;;;;;;5075341;28;20224;-71
2021/09/15 03:59:21;;;;;;;415.47;123.60;;;;;;;;;;5072990;28;20216;-72
2021/09/15 04:01:47;;;;;;;482.00;136.13;;;;;;;;;;5077635;28;20401;-72
2021/09/15 04:04:13;;;;;;;504.83;143.67;;;;;;;;;;5074390;28;20259;-72
2021/09/15 04:06:40;;;;;;;491.67;151.87;;;;;;;;;;5073024;28;20212;-72
2021/09/15 04:09:07;;;;;;;478.93;151.23;;;;;;;;;;5075060;28;20215;-72
2021/09/15 04:11:34;;;;;;;390.17;135.73;;;;;;;;;;5073885;28;20648;-72
2021/09/15 04:14:01;;;;;;;385.67;137.63;;;;;;;;;;5074827;28;20221;-72
2021/09/15 04:16:28;;;;;;;339.83;128.80;;;;;;;;;;5074029;28;20615;-72
2021/09/15 04:18:54;;;;;;;291.50;120.60;;;;;;;;;;5075885;28;20204;-72
2021/09/15 04:21:21;;;;;;;336.17;123.17;;;;;;;;;;5075219;28;20217;-71
2021/09/15 04:23:58;;;;;;;372.97;120.40;;;;;;;;;;5073710;28;20220;-72
2021/09/15 04:31:54;;;;;;;424.48;162.75;;;;;;;;;;5075036;28;20929;-71
2021/09/15 04:34:20;;;;;;;405.90;148.60;;;;;;;;;;5075798;28;20245;-71
2021/09/15 04:36:46;;;;;;;350.13;131.17;;;;;;;;;;5075977;28;20307;-71
2021/09/15 04:39:13;;;;;;;384.27;141.17;;;;;;;;;;5074260;28;20303;-71
2021/09/15 04:41:39;;;;;;;446.87;137.97;;;;;;;;;;5075713;28;20213;-71
2021/09/15 04:44:06;;;;;;;592.87;165.53;;;;;;;;;;5075195;28;20270;-71
2021/09/15 04:46:33;;;;;;;659.07;181.63;;;;;;;;;;5074591;28;20993;-71
2021/09/15 04:49:00;;;;;;;657.53;168.17;;;;;;;;;;5074116;28;20638;-71
2021/09/15 04:51:26;;;;;;;898.33;218.17;;;;;;;;;;5074547;28;20263;-71
2021/09/15 04:53:53;;;;;;;838.17;205.77;;;;;;;;;;5074600;28;20217;-71
2021/09/15 04:56:19;;;;;;;694.17;170.10;;;;;;;;;;5078116;28;20316;-71
2021/09/15 04:58:45;;;;;;;684.00;160.30;;;;;;;;;;5076357;28;20217;-71
2021/09/15 05:01:12;;;;;;;1151.17;259.77;;;;;;;;;;5076389;28;20255;-71
2021/09/15 05:03:40;;;;;;;884.23;197.20;;;;;;;;;;5080039;28;21088;-71
2021/09/15 05:06:06;;;;;;;987.87;216.60;;;;;;;;;;5077864;28;20828;-71
2021/09/15 05:08:32;;;;;;;668.17;160.00;;;;;;;;;;5079340;28;20336;-71
2021/09/15 05:10:59;;;;;;;977.47;220.73;;;;;;;;;;5076659;28;20217;-71
2021/09/15 05:13:25;;;;;;;856.87;202.70;;;;;;;;;;5077225;28;20216;-71
2021/09/15 05:15:51;;;;;;;1093.53;236.00;;;;;;;;;;5079083;28;20264;-71
2021/09/15 05:18:18;;;;;;;618.13;145.17;;;;;;;;;;5077287;28;20237;-71
2021/09/15 05:20:46;;;;;;;1012.57;217.90;;;;;;;;;;5077029;28;20741;-70
2021/09/15 05:23:12;;;;;;;913.10;210.90;;;;;;;;;;5075760;28;20218;-70
2021/09/15 05:25:38;;;;;;;936.47;209.77;;;;;;;;;;5076128;28;20278;-70
2021/09/15 05:28:05;;;;;;;956.53;218.60;;;;;;;;;;5077566;28;20660;-70
2021/09/15 05:30:31;;;;;;;866.07;200.67;;;;;;;;;;5080089;28;20216;-72
2021/09/15 05:32:58;;;;;;;897.07;201.43;;;;;;;;;;5076217;28;20229;-72
2021/09/15 05:35:24;;;;;;;772.93;177.37;;;;;;;;;;5077320;28;20239;-72
2021/09/15 05:37:52;;;;;;;763.03;178.77;;;;;;;;;;5077131;28;20282;-71
2021/09/15 05:40:18;;;;;;;1025.13;240.67;;;;;;;;;;5077878;28;20210;-71
2021/09/15 05:42:45;;;;;;;820.57;197.33;;;;;;;;;;5078312;28;20652;-72
2021/09/15 05:45:12;;;;;;;909.13;213.47;;;;;;;;;;5078484;28;20708;-71
2021/09/15 05:47:38;;;;;;;778.73;204.20;;;;;;;;;;5077288;28;20232;-71
2021/09/15 05:50:06;;;;;;;1127.80;253.10;;;;;;;;;;5077676;28;20583;-71
2021/09/15 05:52:32;;;;;;;1193.53;272.63;;;;;;;;;;5077742;28;20265;-71
2021/09/15 05:55:00;;;;;;;1073.50;243.43;;;;;;;;;;5078428;28;20305;-71
2021/09/15 05:57:26;;;;;;;1165.83;272.37;;;;;;;;;;5076883;28;20215;-71
2021/09/15 05:59:53;;;;;;;1151.93;271.43;;;;;;;;;;5076125;28;20216;-71
2021/09/15 06:02:19;;;;;;;1267.77;287.77;;;;;;;;;;5076341;28;20247;-71
2021/09/15 06:04:45;;;;;;;944.60;232.93;;;;;;;;;;5078643;28;20213;-71
2021/09/15 06:07:12;;;;;;;948.70;230.30;;;;;;;;;;5074618;28;20224;-72
2021/09/15 06:09:38;;;;;;;988.73;235.50;;;;;;;;;;5076023;28;20627;-72
2021/09/15 06:12:06;;;;;;;686.17;187.20;;;;;;;;;;5076481;28;20267;-72
2021/09/15 06:14:33;;;;;;;887.83;223.33;;;;;;;;;;5076313;28;20212;-72
2021/09/15 06:16:59;;;;;;;818.03;210.73;;;;;;;;;;5074669;28;20237;-72
2021/09/15 06:19:26;;;;;;;948.20;226.60;;;;;;;;;;5074147;28;20209;-72
2021/09/15 06:21:52;;;;;;;708.83;182.10;;;;;;;;;;5076626;28;20209;-72
2021/09/15 06:24:18;;;;;;;616.87;169.60;;;;;;;;;;5075470;28;20221;-72
2021/09/15 06:26:47;;;;;;;611.23;171.30;;;;;;;;;;5074594;28;20580;-72
2021/09/15 06:29:14;;;;;;;597.93;158.13;;;;;;;;;;5075211;28;20529;-72
2021/09/15 06:31:42;;;;;;;698.37;183.77;;;;;;;;;;5073307;28;20244;-72
2021/09/15 06:34:09;;;;;;;612.70;169.33;;;;;;;;;;5075496;28;20701;-72
2021/09/15 06:36:35;;;;;;;531.93;155.80;;;;;;;;;;5075900;28;20242;-72
2021/09/15 06:39:02;;;;;;;391.47;120.37;;;;;;;;;;5075866;28;20220;-72
2021/09/15 06:41:28;;;;;;;602.43;171.53;;;;;;;;;;5074185;28;20213;-72
2021/09/15 06:43:54;;;;;;;520.07;152.50;;;;;;;;;;5071219;28;20279;-72
2021/09/15 06:46:23;;;;;;;759.40;192.97;;;;;;;;;;5074724;28;20218;-72
2021/09/15 06:48:49;;;;;;;556.33;162.33;;;;;;;;;;5074686;28;20228;-70
2021/09/15 06:51:16;;;;;;;641.60;174.07;;;;;;;;;;5074466;28;20701;-71
2021/09/15 06:53:42;;;;;;;622.33;172.47;;;;;;;;;;5075187;28;20224;-71
2021/09/15 06:56:09;;;;;;;627.57;173.20;;;;;;;;;;5074750;28;20237;-71
2021/09/15 06:58:36;;;;;;;476.77;145.27;;;;;;;;;;5076339;28;20675;-70
2021/09/15 07:01:02;;;;;;;451.57;146.07;;;;;;;;;;5074112;28;20265;-71
2021/09/15 07:03:30;;;;;;;415.10;138.87;;;;;;;;;;5073727;28;20229;-70
2021/09/15 07:05:56;;;;;;;373.47;124.23;;;;;;;;;;5074897;28;20216;-70
2021/09/15 07:08:23;;;;;;;430.93;140.37;;;;;;;;;;5073895;28;20216;-70
2021/09/15 07:10:49;;;;;;;341.07;130.87;;;;;;;;;;5075100;28;21245;-71
2021/09/15 07:13:16;;;;;;;308.03;122.50;;;;;;;;;;5074488;28;20832;-71
2021/09/15 07:15:42;;;;;;;250.43;116.60;;;;;;;;;;5074444;28;20241;-70
2021/09/15 07:18:09;;;;;;;177.57;96.83;;;;;;;;;;5072382;28;20234;-72
2021/09/15 07:20:36;;;;;;;231.60;109.97;;;;;;;;;;5074063;28;20214;-71
2021/09/15 07:23:03;;;;;;;232.17;113.23;;;;;;;;;;5075420;28;20216;-72
2021/09/15 07:25:29;;;;;;;232.93;112.43;;;;;;;;;;5073732;28;20270;-71
2021/09/15 07:27:56;;;;;;;246.53;113.87;;;;;;;;;;5074373;28;20312;-71
2021/09/15 07:30:22;;;;;;;169.53;95.63;;;;;;;;;;5071973;28;20590;-71
2021/09/15 07:32:49;;;;;;;222.00;106.73;;;;;;;;;;5072180;28;20648;-71
2021/09/15 07:35:15;;;;;;;169.30;92.13;;;;;;;;;;5072712;28;20228;-71
2021/09/15 07:37:43;;;;;;;167.43;93.67;;;;;;;;;;5072365;28;20268;-71
2021/09/15 07:40:10;;;;;;;164.83;92.37;;;;;;;;;;5072435;28;21037;-71
2021/09/15 07:42:37;;;;;;;160.10;91.17;;;;;;;;;;5072544;28;20668;-70
2021/09/15 07:45:05;;;;;;;155.67;92.47;;;;;;;;;;5073324;28;20207;-70
2021/09/15 07:47:31;;;;;;;139.20;83.70;;;;;;;;;;5070968;28;20235;-70
2021/09/15 07:49:57;;;;;;;125.90;78.43;;;;;;;;;;5073371;28;20721;-70
2021/09/15 07:52:24;;;;;;;112.60;75.63;;;;;;;;;;5074207;28;21344;-70
2021/09/15 07:54:52;;;;;;;110.10;73.87;;;;;;;;;;5075582;28;20214;-70
2021/09/15 07:57:20;;;;;;;111.50;75.70;;;;;;;;;;5072645;28;20226;-70
2021/09/15 07:59:46;;;;;;;118.80;75.67;;;;;;;;;;5073806;28;20213;-70
2021/09/15 08:02:12;;;;;;;118.00;75.87;;;;;;;;;;5072169;28;20305;-71
2021/09/15 08:04:39;;;;;;;120.43;76.93;;;;;;;;;;5071976;28;20216;-70
2021/09/15 08:07:06;;;;;;;105.27;71.87;;;;;;;;;;5074900;28;20216;-70
2021/09/15 08:09:34;;;;;;;109.53;76.87;;;;;;;;;;5071668;28;20263;-70
2021/09/15 08:12:02;;;;;;;99.73;74.40;;;;;;;;;;5072290;28;20593;-70
2021/09/15 08:14:29;;;;;;;125.17;82.67;;;;;;;;;;5073470;28;20224;-70
2021/09/15 08:16:55;;;;;;;120.33;76.20;;;;;;;;;;5073063;28;20236;-69
2021/09/15 08:19:23;;;;;;;117.80;77.27;;;;;;;;;;5072274;28;20220;-70
2021/09/15 08:21:49;;;;;;;124.23;79.50;;;;;;;;;;5073151;28;20306;-69
2021/09/15 08:24:16;;;;;;;114.70;74.07;;;;;;;;;;5072869;28;20318;-71
2021/09/15 08:26:42;;;;;;;120.87;77.43;;;;;;;;;;5072043;28;20218;-70
2021/09/15 08:29:10;;;;;;;110.77;73.57;;;;;;;;;;5072085;28;20258;-70
2021/09/15 08:31:36;;;;;;;112.70;75.30;;;;;;;;;;5072155;28;20221;-71
2021/09/15 08:34:03;;;;;;;114.23;76.00;;;;;;;;;;5071410;28;20220;-71
2021/09/15 08:36:29;;;;;;;98.10;68.10;;;;;;;;;;5073908;28;20287;-71
2021/09/15 08:38:56;;;;;;;90.87;64.07;;;;;;;;;;5068993;28;20261;-71
2021/09/15 08:41:22;;;;;;;91.00;61.90;;;;;;;;;;5071245;28;20277;-71
2021/09/15 08:43:49;;;;;;;82.53;60.17;;;;;;;;;;5071555;28;20288;-73
2021/09/15 08:46:20;;;;;;;86.40;59.00;;;;;;;;;;5069725;28;20323;-70
2021/09/15 08:48:47;;;;;;;78.30;57.30;;;;;;;;;;5072296;28;20637;-70
2021/09/15 08:51:16;;;;;;;76.03;56.07;;;;;;;;;;5073434;28;20217;-71
2021/09/15 08:53:44;;;;;;;76.03;54.13;;;;;;;;;;5072743;28;20267;-70
2021/09/15 08:56:11;;;;;;;69.43;51.80;;;;;;;;;;5072888;28;20750;-70
2021/09/15 08:58:38;;;;;;;72.17;54.07;;;;;;;;;;5072503;28;20214;-70
2021/09/15 09:01:08;;;;;;;76.87;54.37;;;;;;;;;;5072961;28;20649;-72
2021/09/15 09:03:37;;;;;;;72.70;52.13;;;;;;;;;;5072872;28;20217;-71
2021/09/15 09:06:10;;;;;;;70.70;52.67;;;;;;;;;;5072202;28;20305;-71
2021/09/15 09:08:40;;;;;;;76.77;54.60;;;;;;;;;;5072798;28;20208;-72
2021/09/15 09:11:06;;;;;;;71.60;53.70;;;;;;;;;;5070865;28;20209;-71
2021/09/15 09:13:34;;;;;;;68.87;51.83;;;;;;;;;;5074123;28;20242;-72
2021/09/15 09:16:00;;;;;;;68.43;49.90;;;;;;;;;;5071412;28;20321;-72
2021/09/15 09:18:26;;;;;;;69.30;49.67;;;;;;;;;;5071365;28;20236;-72
2021/09/15 09:20:54;;;;;;;64.93;47.60;;;;;;;;;;5073333;28;20274;-72
2021/09/15 09:23:21;;;;;;;64.07;46.23;;;;;;;;;;5072284;28;20213;-72
2021/09/15 09:25:52;;;;;;;67.87;49.40;;;;;;;;;;5071244;28;20851;-72
2021/09/15 09:28:24;;;;;;;73.37;50.27;;;;;;;;;;5073301;28;20215;-72
2021/09/15 09:30:53;;;;;;;66.83;47.63;;;;;;;;;;5070759;28;20213;-72
2021/09/15 09:33:20;;;;;;;61.37;46.03;;;;;;;;;;5071783;28;20235;-72
2021/09/15 09:35:49;;;;;;;63.63;47.47;;;;;;;;;;5072551;28;20216;-72
2021/09/15 09:38:28;;;;;;;59.00;47.07;;;;;;;;;;5072578;28;20767;-72
2021/09/15 09:41:07;;;;;;;67.03;46.77;;;;;;;;;;5075273;28;20231;-72
2021/09/15 09:43:35;;;;;;;65.93;46.50;;;;;;;;;;5076597;28;20206;-72
2021/09/15 09:46:03;;;;;;;62.07;46.37;;;;;;;;;;5075948;28;20270;-72
2021/09/15 09:48:31;;;;;;;62.23;47.60;;;;;;;;;;5076949;28;20226;-72
2021/09/15 09:50:58;;;;;;;57.50;45.87;;;;;;;;;;5077597;28;20255;-72
2021/09/15 09:53:27;;;;;;;65.43;47.27;;;;;;;;;;5074782;28;20247;-72
2021/09/15 09:55:57;;;;;;;68.07;46.87;;;;;;;;;;5076422;28;20571;-72
2021/09/15 09:58:25;;;;;;;55.60;45.00;;;;;;;;;;5074354;28;20221;-72
2021/09/15 10:00:54;;;;;;;54.07;43.87;;;;;;;;;;5076143;28;20248;-72
2021/09/15 10:03:21;;;;;;;59.00;46.17;;;;;;;;;;5074201;28;20245;-72
2021/09/15 10:05:48;;;;;;;53.53;41.50;;;;;;;;;;5076433;28;20214;-72
2021/09/15 10:08:18;;;;;;;48.87;40.77;;;;;;;;;;5074628;28;20263;-72
2021/09/15 10:10:48;;;;;;;54.40;40.97;;;;;;;;;;5074873;28;20218;-72
2021/09/15 10:13:17;;;;;;;40.57;34.63;;;;;;;;;;5075276;28;20271;-72
2021/09/15 10:15:48;;;;;;;39.07;32.70;;;;;;;;;;5077978;28;20214;-72
2021/09/15 10:18:16;;;;;;;37.00;33.10;;;;;;;;;;5073729;28;20226;-72
2021/09/15 10:20:48;;;;;;;25.00;22.40;;;;;;;;;;5075532;28;20372;-72
2021/09/15 10:23:39;;;;;;;32.27;28.97;;;;;;;;;;5075625;28;20890;-72
2021/09/15 10:26:33;;;;;;;43.13;28.63;;;;;;;;;;5074493;28;20217;-72
2021/09/15 10:29:30;;;;;;;36.10;32.27;;;;;;;;;;5073641;28;20232;-72
2021/09/15 10:31:59;;;;;;;24.50;22.10;;;;;;;;;;5075024;28;20280;-71
2021/09/15 10:34:51;;;;;;;23.87;21.40;;;;;;;;;;5075834;28;20217;-71
2021/09/15 10:37:48;;;;;;;23.47;21.13;;;;;;;;;;5073635;28;20731;-72
2021/09/15 10:40:14;;;;;;;26.43;23.67;;;;;;;;;;4993692;28;20199;-72
2021/09/15 10:42:47;;;;;;;22.53;20.23;;;;;;;;;;5055355;28;20300;-72
2021/09/15 10:45:15;;;;;;;22.87;20.33;;;;;;;;;;5074196;28;20320;-72
2021/09/15 10:47:42;;;;;;;23.53;21.27;;;;;;;;;;5074394;28;20224;-72
2021/09/15 10:50:11;;;;;;;23.50;21.20;;;;;;;;;;5071607;28;20217;-72
2021/09/15 10:52:39;;;;;;;21.77;19.67;;;;;;;;;;5075536;28;20664;-72
2021/09/15 10:55:24;;;;;;;25.17;22.60;;;;;;;;;;5074916;28;20209;-73
2021/09/15 10:57:52;;;;;;;23.90;21.53;;;;;;;;;;5077474;28;20327;-72
2021/09/15 11:00:26;;;;;;;24.57;22.20;;;;;;;;;;5075784;28;20814;-72
2021/09/15 11:02:53;;;;;;;22.60;20.60;;;;;;;;;;5076374;28;20305;-70
2021/09/15 11:05:42;;;;;;;18.63;16.83;;;;;;;;;;5072827;28;20219;-70
2021/09/15 11:08:30;;;;;;;16.33;14.80;;;;;;;;;;5074346;28;20278;-70
2021/09/15 11:10:56;;;;;;;16.60;15.03;;;;;;;;;;5065528;28;20213;-70
2021/09/15 11:13:47;;;;;;;18.17;16.47;;;;;;;;;;5073287;28;20210;-75
2021/09/15 11:16:26;;;;;;;19.13;17.23;;;;;;;;;;5074515;28;20214;-72
2021/09/15 11:18:57;;;;;;;15.73;14.17;;;;;;;;;;5074443;28;20204;-72
2021/09/15 11:21:25;;;;;;;15.50;13.90;;;;;;;;;;5072849;28;20266;-71
2021/09/15 11:23:54;;;;;;;15.10;13.70;;;;;;;;;;5072208;28;20217;-71
2021/09/15 11:26:35;;;;;;;15.67;13.43;;;;;;;;;;5075308;28;20392;-71
2021/09/15 11:29:03;;;;;;;14.13;12.80;;;;;;;;;;5074595;28;20222;-70
2021/09/15 11:31:32;;;;;;;14.23;12.83;;;;;;;;;;5070735;28;20248;-70
2021/09/15 11:34:07;;;;;;;14.57;13.27;;;;;;;;;;5074899;28;20215;-70
2021/09/15 11:36:34;;;;;;;14.37;13.07;;;;;;;;;;5074478;28;20232;-71
2021/09/15 11:39:00;;;;;;;15.43;13.90;;;;;;;;;;5072355;28;20219;-70
2021/09/15 11:41:27;;;;;;;16.77;15.23;;;;;;;;;;5073813;28;20221;-70
2021/09/15 11:43:53;;;;;;;16.43;14.77;;;;;;;;;;5074771;28;20218;-71
2021/09/15 11:46:30;;;;;;;15.27;13.73;;;;;;;;;;5071861;28;20213;-70
2021/09/15 11:48:56;;;;;;;14.67;13.17;;;;;;;;;;5068464;28;20213;-70
2021/09/15 11:51:25;;;;;;;14.30;13.00;;;;;;;;;;5074206;28;20267;-70
2021/09/15 11:53:55;;;;;;;14.07;12.73;;;;;;;;;;5073541;28;20217;-70
2021/09/15 11:56:28;;;;;;;11.87;10.67;;;;;;;;;;5071901;28;20317;-70
2021/09/15 11:58:54;;;;;;;10.63;9.63;;;;;;;;;;5072273;28;20332;-71
2021/09/15 12:01:26;;;;;;;11.57;9.10;;;;;;;;;;5072628;28;20240;-70
2021/09/15 12:03:54;;;;;;;12.73;10.43;;;;;;;;;;5071621;28;20305;-70
2021/09/15 12:06:21;;;;;;;10.27;9.37;;;;;;;;;;5072275;28;20222;-70
2021/09/15 12:08:48;;;;;;;12.27;9.63;;;;;;;;;;5073224;28;20603;-71
2021/09/15 12:11:15;;;;;;;12.80;9.90;;;;;;;;;;5071560;28;20256;-70
2021/09/15 12:13:42;;;;;;;10.03;8.70;;;;;;;;;;5072118;28;20655;-70
2021/09/15 12:16:08;;;;;;;8.60;7.80;;;;;;;;;;5073577;28;20270;-71
2021/09/15 12:18:41;;;;;;;8.50;7.70;;;;;;;;;;5074276;28;20288;-71
2021/09/15 12:21:14;;;;;;;11.60;5.50;;;;;;;;;;5065118;28;20229;-70
2021/09/15 12:23:41;;;;;;;8.67;5.00;;;;;;;;;;5070790;28;20218;-70
2021/09/15 12:26:07;;;;;;;9.40;4.93;;;;;;;;;;5071345;28;20529;-70
2021/09/15 12:28:34;;;;;;;9.77;5.30;;;;;;;;;;5071977;28;20261;-71
2021/09/15 12:31:03;;;;;;;7.90;6.33;;;;;;;;;;5071258;28;20595;-70
2021/09/15 12:33:31;;;;;;;10.37;6.80;;;;;;;;;;5072945;28;20233;-70
2021/09/15 12:36:15;;;;;;;9.70;7.03;;;;;;;;;;5072777;28;20263;-70
2021/09/15 12:38:55;;;;;;;7.70;7.10;;;;;;;;;;5073343;28;20221;-71
2021/09/15 12:41:21;;;;;;;7.23;5.57;;;;;;;;;;5072167;28;20211;-70
2021/09/15 12:43:48;;;;;;;6.50;5.80;;;;;;;;;;5070761;28;20213;-71
2021/09/15 12:46:25;;;;;;;6.97;6.00;;;;;;;;;;5071813;28;20922;-72
2021/09/15 12:48:51;;;;;;;6.23;5.50;;;;;;;;;;5072731;28;20373;-70
2021/09/15 12:51:20;;;;;;;5.60;5.10;;;;;;;;;;5071677;28;20221;-70
2021/09/15 12:53:49;;;;;;;9.10;5.00;;;;;;;;;;5070778;28;20220;-72
2021/09/15 12:56:15;;;;;;;7.40;4.90;;;;;;;;;;5071835;28;20210;-72
2021/09/15 12:58:42;;;;;;;8.30;5.90;;;;;;;;;;5073410;28;20290;-70
2021/09/15 13:01:18;;;;;;;6.80;5.97;;;;;;;;;;5070995;28;20232;-70
2021/09/15 13:03:46;;;;;;;8.30;5.23;;;;;;;;;;5071435;28;20221;-71
2021/09/15 13:06:15;;;;;;;8.10;5.30;;;;;;;;;;5072665;28;20218;-70
2021/09/15 13:08:48;;;;;;;11.13;4.97;;;;;;;;;;5071961;28;20225;-70
2021/09/15 13:11:15;;;;;;;6.03;4.93;;;;;;;;;;5069943;28;20205;-70
2021/09/15 13:13:42;;;;;;;11.90;5.70;;;;;;;;;;5070048;28;20206;-70
2021/09/15 13:16:08;;;;;;;8.60;5.20;;;;;;;;;;5079380;28;20256;-70
2021/09/15 13:18:35;;;;;;;8.47;6.00;;;;;;;;;;5075887;28;20229;-71
2021/09/15 13:21:01;;;;;;;9.00;5.87;;;;;;;;;;5075726;28;20221;-70
2021/09/15 13:23:28;;;;;;;8.57;6.37;;;;;;;;;;5072584;28;20220;-70
2021/09/15 13:25:58;;;;;;;12.93;6.60;;;;;;;;;;5075829;28;20871;-70
2021/09/15 13:28:25;;;;;;;8.97;6.73;;;;;;;;;;5073551;28;20745;-71
2021/09/15 13:30:51;;;;;;;11.40;6.30;;;;;;;;;;5072657;28;20675;-72
2021/09/15 13:33:18;;;;;;;8.13;7.10;;;;;;;;;;5071670;28;20286;-73
2021/09/15 13:35:44;;;;;;;9.23;7.30;;;;;;;;;;5073723;28;20439;-72
2021/09/15 13:38:11;;;;;;;9.10;7.00;;;;;;;;;;5071977;28;20244;-72
2021/09/15 13:40:37;;;;;;;8.40;6.60;;;;;;;;;;5074919;28;20216;-72
2021/09/15 13:43:05;;;;;;;9.47;6.93;;;;;;;;;;5071740;28;20253;-70
2021/09/15 13:45:32;;;;;;;7.57;6.77;;;;;;;;;;5072692;28;20535;-70
2021/09/15 13:47:58;;;;;;;10.77;8.07;;;;;;;;;;5074298;28;20238;-70
2021/09/15 13:50:25;;;;;;;9.83;8.83;;;;;;;;;;5077480;28;20673;-71
2021/09/15 13:52:52;;;;;;;11.47;9.43;;;;;;;;;;5075573;28;20217;-69
2021/09/15 13:55:21;;;;;;;12.63;10.03;;;;;;;;;;5074305;28;20270;-72
2021/09/15 13:57:48;;;;;;;12.13;10.93;;;;;;;;;;5074003;28;20238;-72
2021/09/15 14:00:17;;;;;;;12.40;11.03;;;;;;;;;;5075145;28;20667;-72
2021/09/15 14:02:44;;;;;;;14.63;12.90;;;;;;;;;;5072632;28;20257;-71
2021/09/15 14:05:11;;;;;;;14.10;12.33;;;;;;;;;;5074827;28;20209;-70
2021/09/15 14:07:41;;;;;;;18.40;14.90;;;;;;;;;;5074343;28;20209;-70
2021/09/15 14:10:08;;;;;;;20.20;18.17;;;;;;;;;;5075776;28;20212;-69
2021/09/15 14:12:35;;;;;;;20.97;18.83;;;;;;;;;;5075092;28;20282;-69
2021/09/15 14:15:02;;;;;;;23.43;19.87;;;;;;;;;;5074381;28;20308;-69
2021/09/15 14:17:29;;;;;;;22.83;20.40;;;;;;;;;;5073793;28;20283;-69
2021/09/15 14:19:56;;;;;;;24.43;20.07;;;;;;;;;;5071766;28;20212;-69
2021/09/15 14:22:22;;;;;;;21.93;17.93;;;;;;;;;;5074030;28;20212;-69